Woodward, Iowa
Current Conditions -  °F | °C
As of 11:55 PM on Thursday 27 Nov 2014 (Local Time) from KPRO Reporting Station
Clear Clear  
Wind Chill: -3°   Ceiling: Unl
Heat Index: 13°   Visibility: 10mi
Dew Point:   Wind: 14mph
Humidity: 80%   Direction: 130°SE
Pressure: 30.21"   Gusts: NA
Location:  41.86°N, 93.92°W
Report Text: KPRO 280555Z AUTO 13012KT 10SM CLR M11/M14 A3021 RMK AO2 T11081136 11098 21120
Loading
Personal Weather Stations






























Interactive Weather Map New forecast layout! Learn more

10-Day Weather Forecast

Advertisements
Track Severe Weather on mobile